sensor_id;sensor_type;location;lat;lon;timestamp;P1;durP1;ratioP1;P2;durP2;ratioP2
16892;SDS011;8563;52.242;9.098;2022-12-18T00:00:48;10.33;;;6.57;;
16892;SDS011;8563;52.242;9.098;2022-12-18T00:03:21;11.43;;;6.20;;
16892;SDS011;8563;52.242;9.098;2022-12-18T00:05:53;10.40;;;6.27;;
16892;SDS011;8563;52.242;9.098;2022-12-18T00:08:27;10.60;;;6.20;;
16892;SDS011;8563;52.242;9.098;2022-12-18T00:11:03;11.97;;;6.00;;
16892;SDS011;8563;52.242;9.098;2022-12-18T00:13:36;10.50;;;5.97;;
16892;SDS011;8563;52.242;9.098;2022-12-18T00:16:09;8.50;;;5.77;;
16892;SDS011;8563;52.242;9.098;2022-12-18T00:18:42;9.33;;;5.93;;
16892;SDS011;8563;52.242;9.098;2022-12-18T00:21:15;9.30;;;6.07;;
16892;SDS011;8563;52.242;9.098;2022-12-18T00:23:49;10.73;;;6.27;;
16892;SDS011;8563;52.242;9.098;2022-12-18T00:26:22;9.77;;;5.93;;
16892;SDS011;8563;52.242;9.098;2022-12-18T00:29:00;7.87;;;5.83;;
16892;SDS011;8563;52.242;9.098;2022-12-18T00:31:34;10.20;;;5.93;;
16892;SDS011;8563;52.242;9.098;2022-12-18T00:34:08;9.87;;;5.97;;
16892;SDS011;8563;52.242;9.098;2022-12-18T00:36:43;9.87;;;5.70;;
16892;SDS011;8563;52.242;9.098;2022-12-18T00:39:17;8.30;;;5.70;;
16892;SDS011;8563;52.242;9.098;2022-12-18T00:41:50;9.43;;;5.50;;
16892;SDS011;8563;52.242;9.098;2022-12-18T00:44:40;7.07;;;5.13;;
16892;SDS011;8563;52.242;9.098;2022-12-18T00:47:13;10.30;;;5.17;;
16892;SDS011;8563;52.242;9.098;2022-12-18T00:49:45;8.87;;;5.30;;
16892;SDS011;8563;52.242;9.098;2022-12-18T00:52:18;6.93;;;5.00;;
16892;SDS011;8563;52.242;9.098;2022-12-18T00:54:52;8.57;;;5.53;;
16892;SDS011;8563;52.242;9.098;2022-12-18T00:57:24;9.90;;;5.57;;
16892;SDS011;8563;52.242;9.098;2022-12-18T00:59:57;7.73;;;4.97;;
16892;SDS011;8563;52.242;9.098;2022-12-18T01:02:29;9.17;;;5.13;;
16892;SDS011;8563;52.242;9.098;2022-12-18T01:05:02;8.13;;;5.03;;
16892;SDS011;8563;52.242;9.098;2022-12-18T01:07:35;9.20;;;5.07;;
16892;SDS011;8563;52.242;9.098;2022-12-18T01:10:10;6.73;;;4.93;;
16892;SDS011;8563;52.242;9.098;2022-12-18T01:12:44;8.30;;;4.40;;
16892;SDS011;8563;52.242;9.098;2022-12-18T01:15:16;10.17;;;5.30;;
16892;SDS011;8563;52.242;9.098;2022-12-18T01:17:51;8.97;;;5.30;;
16892;SDS011;8563;52.242;9.098;2022-12-18T01:20:24;8.60;;;4.57;;
16892;SDS011;8563;52.242;9.098;2022-12-18T01:22:58;8.40;;;5.10;;
16892;SDS011;8563;52.242;9.098;2022-12-18T01:25:32;8.93;;;5.70;;
16892;SDS011;8563;52.242;9.098;2022-12-18T01:28:04;7.00;;;4.77;;
16892;SDS011;8563;52.242;9.098;2022-12-18T01:30:37;10.23;;;5.50;;
16892;SDS011;8563;52.242;9.098;2022-12-18T01:33:09;13.10;;;5.73;;
16892;SDS011;8563;52.242;9.098;2022-12-18T01:35:42;8.77;;;5.50;;
16892;SDS011;8563;52.242;9.098;2022-12-18T01:38:16;9.33;;;5.43;;
16892;SDS011;8563;52.242;9.098;2022-12-18T01:40:51;10.27;;;5.50;;
16892;SDS011;8563;52.242;9.098;2022-12-18T01:43:41;8.03;;;5.00;;
16892;SDS011;8563;52.242;9.098;2022-12-18T01:46:14;8.57;;;4.90;;
16892;SDS011;8563;52.242;9.098;2022-12-18T01:48:48;9.17;;;5.43;;
16892;SDS011;8563;52.242;9.098;2022-12-18T01:51:21;8.47;;;5.40;;
16892;SDS011;8563;52.242;9.098;2022-12-18T01:53:54;10.73;;;5.73;;
16892;SDS011;8563;52.242;9.098;2022-12-18T01:56:28;7.73;;;4.93;;
16892;SDS011;8563;52.242;9.098;2022-12-18T01:59:01;9.53;;;5.47;;
16892;SDS011;8563;52.242;9.098;2022-12-18T02:01:34;8.27;;;4.77;;
16892;SDS011;8563;52.242;9.098;2022-12-18T02:04:19;9.33;;;5.37;;
16892;SDS011;8563;52.242;9.098;2022-12-18T02:06:54;9.03;;;5.13;;
16892;SDS011;8563;52.242;9.098;2022-12-18T02:09:31;7.33;;;4.80;;
16892;SDS011;8563;52.242;9.098;2022-12-18T02:12:10;9.67;;;5.00;;
16892;SDS011;8563;52.242;9.098;2022-12-18T02:14:46;6.63;;;4.63;;
16892;SDS011;8563;52.242;9.098;2022-12-18T02:17:22;8.10;;;4.30;;
16892;SDS011;8563;52.242;9.098;2022-12-18T02:19:59;8.57;;;5.20;;
16892;SDS011;8563;52.242;9.098;2022-12-18T02:22:36;8.87;;;4.70;;
16892;SDS011;8563;52.242;9.098;2022-12-18T02:25:13;7.93;;;4.73;;
16892;SDS011;8563;52.242;9.098;2022-12-18T02:27:50;8.90;;;5.03;;
16892;SDS011;8563;52.242;9.098;2022-12-18T02:30:24;8.90;;;5.27;;
16892;SDS011;8563;52.242;9.098;2022-12-18T02:32:58;9.90;;;5.20;;
16892;SDS011;8563;52.242;9.098;2022-12-18T02:35:31;9.00;;;4.80;;
16892;SDS011;8563;52.242;9.098;2022-12-18T02:38:06;9.10;;;4.80;;
16892;SDS011;8563;52.242;9.098;2022-12-18T02:40:40;7.63;;;4.50;;
16892;SDS011;8563;52.242;9.098;2022-12-18T02:43:15;11.47;;;5.57;;
16892;SDS011;8563;52.242;9.098;2022-12-18T02:45:49;8.70;;;5.47;;
16892;SDS011;8563;52.242;9.098;2022-12-18T02:48:24;10.07;;;5.40;;
16892;SDS011;8563;52.242;9.098;2022-12-18T02:50:58;6.80;;;4.83;;
16892;SDS011;8563;52.242;9.098;2022-12-18T02:53:33;8.87;;;5.27;;
16892;SDS011;8563;52.242;9.098;2022-12-18T02:56:09;7.47;;;5.07;;
16892;SDS011;8563;52.242;9.098;2022-12-18T02:58:47;8.37;;;5.33;;
16892;SDS011;8563;52.242;9.098;2022-12-18T03:01:34;8.03;;;4.87;;
16892;SDS011;8563;52.242;9.098;2022-12-18T03:04:09;8.73;;;5.33;;
16892;SDS011;8563;52.242;9.098;2022-12-18T03:06:43;9.07;;;5.03;;
16892;SDS011;8563;52.242;9.098;2022-12-18T03:09:19;8.30;;;4.80;;
16892;SDS011;8563;52.242;9.098;2022-12-18T03:11:55;7.33;;;4.77;;
16892;SDS011;8563;52.242;9.098;2022-12-18T03:14:48;8.27;;;4.70;;
16892;SDS011;8563;52.242;9.098;2022-12-18T03:17:22;7.57;;;4.77;;
16892;SDS011;8563;52.242;9.098;2022-12-18T03:19:56;7.70;;;4.90;;
16892;SDS011;8563;52.242;9.098;2022-12-18T03:22:30;6.23;;;4.70;;
16892;SDS011;8563;52.242;9.098;2022-12-18T03:25:05;8.23;;;5.47;;
16892;SDS011;8563;52.242;9.098;2022-12-18T03:27:40;9.00;;;4.93;;
16892;SDS011;8563;52.242;9.098;2022-12-18T03:30:18;8.77;;;5.30;;
16892;SDS011;8563;52.242;9.098;2022-12-18T03:32:51;7.53;;;4.90;;
16892;SDS011;8563;52.242;9.098;2022-12-18T03:35:28;8.20;;;5.30;;
16892;SDS011;8563;52.242;9.098;2022-12-18T03:38:02;7.33;;;4.90;;
16892;SDS011;8563;52.242;9.098;2022-12-18T03:40:40;10.73;;;5.57;;
16892;SDS011;8563;52.242;9.098;2022-12-18T03:43:16;9.87;;;5.53;;
16892;SDS011;8563;52.242;9.098;2022-12-18T03:45:52;8.43;;;5.10;;
16892;SDS011;8563;52.242;9.098;2022-12-18T03:48:29;7.17;;;5.07;;
16892;SDS011;8563;52.242;9.098;2022-12-18T03:51:08;8.13;;;5.60;;
16892;SDS011;8563;52.242;9.098;2022-12-18T03:53:44;7.37;;;5.07;;
16892;SDS011;8563;52.242;9.098;2022-12-18T03:56:21;9.23;;;5.53;;
16892;SDS011;8563;52.242;9.098;2022-12-18T03:58:55;9.67;;;5.70;;
16892;SDS011;8563;52.242;9.098;2022-12-18T04:01:33;10.50;;;4.87;;
16892;SDS011;8563;52.242;9.098;2022-12-18T04:04:06;9.27;;;5.30;;
16892;SDS011;8563;52.242;9.098;2022-12-18T04:06:42;7.70;;;5.33;;
16892;SDS011;8563;52.242;9.098;2022-12-18T04:09:17;8.60;;;5.23;;
16892;SDS011;8563;52.242;9.098;2022-12-18T04:11:51;7.43;;;4.80;;
16892;SDS011;8563;52.242;9.098;2022-12-18T04:14:24;8.27;;;5.30;;
16892;SDS011;8563;52.242;9.098;2022-12-18T04:17:01;8.97;;;5.33;;
16892;SDS011;8563;52.242;9.098;2022-12-18T04:19:35;8.90;;;5.77;;
16892;SDS011;8563;52.242;9.098;2022-12-18T04:22:08;11.40;;;5.70;;
16892;SDS011;8563;52.242;9.098;2022-12-18T04:24:47;10.67;;;5.80;;
16892;SDS011;8563;52.242;9.098;2022-12-18T04:27:28;10.30;;;6.13;;
16892;SDS011;8563;52.242;9.098;2022-12-18T04:30:01;8.03;;;5.27;;
16892;SDS011;8563;52.242;9.098;2022-12-18T04:32:36;8.17;;;5.10;;
16892;SDS011;8563;52.242;9.098;2022-12-18T04:35:09;8.93;;;5.60;;
16892;SDS011;8563;52.242;9.098;2022-12-18T04:37:45;10.07;;;6.10;;
16892;SDS011;8563;52.242;9.098;2022-12-18T04:40:19;9.40;;;5.07;;
16892;SDS011;8563;52.242;9.098;2022-12-18T04:42:52;10.03;;;5.67;;
16892;SDS011;8563;52.242;9.098;2022-12-18T04:45:24;8.63;;;5.50;;
16892;SDS011;8563;52.242;9.098;2022-12-18T04:47:59;7.00;;;4.90;;
16892;SDS011;8563;52.242;9.098;2022-12-18T04:50:31;8.20;;;5.60;;
16892;SDS011;8563;52.242;9.098;2022-12-18T04:53:04;9.20;;;5.67;;
16892;SDS011;8563;52.242;9.098;2022-12-18T04:55:37;10.90;;;5.87;;
16892;SDS011;8563;52.242;9.098;2022-12-18T04:58:09;7.33;;;5.90;;
16892;SDS011;8563;52.242;9.098;2022-12-18T05:00:42;9.93;;;5.80;;
16892;SDS011;8563;52.242;9.098;2022-12-18T05:03:16;10.53;;;5.90;;
16892;SDS011;8563;52.242;9.098;2022-12-18T05:05:49;7.80;;;5.60;;
16892;SDS011;8563;52.242;9.098;2022-12-18T05:08:22;8.67;;;5.50;;
16892;SDS011;8563;52.242;9.098;2022-12-18T05:10:58;10.37;;;5.70;;
16892;SDS011;8563;52.242;9.098;2022-12-18T05:13:31;8.90;;;5.73;;
16892;SDS011;8563;52.242;9.098;2022-12-18T05:16:04;9.33;;;6.00;;
16892;SDS011;8563;52.242;9.098;2022-12-18T05:18:38;9.33;;;5.63;;
16892;SDS011;8563;52.242;9.098;2022-12-18T05:21:11;11.53;;;6.03;;
16892;SDS011;8563;52.242;9.098;2022-12-18T05:23:43;7.47;;;5.13;;
16892;SDS011;8563;52.242;9.098;2022-12-18T05:26:17;10.27;;;5.93;;
16892;SDS011;8563;52.242;9.098;2022-12-18T05:28:49;8.50;;;5.80;;
16892;SDS011;8563;52.242;9.098;2022-12-18T05:31:22;8.43;;;6.33;;
16892;SDS011;8563;52.242;9.098;2022-12-18T05:33:57;9.40;;;5.87;;
16892;SDS011;8563;52.242;9.098;2022-12-18T05:36:29;10.20;;;5.70;;
16892;SDS011;8563;52.242;9.098;2022-12-18T05:39:02;6.97;;;4.93;;
16892;SDS011;8563;52.242;9.098;2022-12-18T05:41:35;9.80;;;6.30;;
16892;SDS011;8563;52.242;9.098;2022-12-18T05:44:07;9.20;;;6.10;;
16892;SDS011;8563;52.242;9.098;2022-12-18T05:46:40;7.60;;;5.43;;
16892;SDS011;8563;52.242;9.098;2022-12-18T05:49:14;9.20;;;5.53;;
16892;SDS011;8563;52.242;9.098;2022-12-18T05:51:47;9.10;;;5.63;;
16892;SDS011;8563;52.242;9.098;2022-12-18T05:54:19;8.60;;;5.03;;
16892;SDS011;8563;52.242;9.098;2022-12-18T05:56:52;9.50;;;5.60;;
16892;SDS011;8563;52.242;9.098;2022-12-18T05:59:24;10.23;;;5.43;;
16892;SDS011;8563;52.242;9.098;2022-12-18T06:01:57;8.90;;;5.63;;
16892;SDS011;8563;52.242;9.098;2022-12-18T06:04:31;8.50;;;5.23;;
16892;SDS011;8563;52.242;9.098;2022-12-18T06:07:04;10.00;;;5.90;;
16892;SDS011;8563;52.242;9.098;2022-12-18T06:09:36;10.97;;;5.73;;
16892;SDS011;8563;52.242;9.098;2022-12-18T06:12:09;8.87;;;5.77;;
16892;SDS011;8563;52.242;9.098;2022-12-18T06:14:42;6.70;;;4.70;;
16892;SDS011;8563;52.242;9.098;2022-12-18T06:17:14;10.13;;;5.77;;
16892;SDS011;8563;52.242;9.098;2022-12-18T06:19:48;9.47;;;5.20;;
16892;SDS011;8563;52.242;9.098;2022-12-18T06:22:21;8.87;;;5.13;;
16892;SDS011;8563;52.242;9.098;2022-12-18T06:24:54;7.60;;;5.23;;
16892;SDS011;8563;52.242;9.098;2022-12-18T06:27:26;6.90;;;4.47;;
16892;SDS011;8563;52.242;9.098;2022-12-18T06:29:59;9.90;;;5.07;;
16892;SDS011;8563;52.242;9.098;2022-12-18T06:32:32;8.50;;;5.37;;
16892;SDS011;8563;52.242;9.098;2022-12-18T06:35:06;8.80;;;4.93;;
16892;SDS011;8563;52.242;9.098;2022-12-18T06:37:39;7.43;;;5.00;;
16892;SDS011;8563;52.242;9.098;2022-12-18T06:40:11;6.50;;;5.00;;
16892;SDS011;8563;52.242;9.098;2022-12-18T06:42:44;7.30;;;4.80;;
16892;SDS011;8563;52.242;9.098;2022-12-18T06:45:17;8.33;;;5.23;;
16892;SDS011;8563;52.242;9.098;2022-12-18T06:47:49;9.87;;;5.30;;
16892;SDS011;8563;52.242;9.098;2022-12-18T06:50:23;5.90;;;4.53;;
16892;SDS011;8563;52.242;9.098;2022-12-18T06:52:55;9.17;;;5.20;;
16892;SDS011;8563;52.242;9.098;2022-12-18T06:55:28;7.57;;;4.60;;
16892;SDS011;8563;52.242;9.098;2022-12-18T06:58:00;9.30;;;5.23;;
16892;SDS011;8563;52.242;9.098;2022-12-18T07:00:33;6.13;;;4.47;;
16892;SDS011;8563;52.242;9.098;2022-12-18T07:03:05;8.93;;;5.10;;
16892;SDS011;8563;52.242;9.098;2022-12-18T07:05:40;10.67;;;5.10;;
16892;SDS011;8563;52.242;9.098;2022-12-18T07:08:13;9.10;;;4.97;;
16892;SDS011;8563;52.242;9.098;2022-12-18T07:10:45;7.67;;;4.70;;
16892;SDS011;8563;52.242;9.098;2022-12-18T07:13:19;8.43;;;5.40;;
16892;SDS011;8563;52.242;9.098;2022-12-18T07:15:51;8.30;;;5.70;;
16892;SDS011;8563;52.242;9.098;2022-12-18T07:18:24;8.70;;;5.83;;
16892;SDS011;8563;52.242;9.098;2022-12-18T07:20:58;8.57;;;5.10;;
16892;SDS011;8563;52.242;9.098;2022-12-18T07:23:34;7.87;;;5.20;;
16892;SDS011;8563;52.242;9.098;2022-12-18T07:26:07;8.57;;;5.10;;
16892;SDS011;8563;52.242;9.098;2022-12-18T07:28:40;8.50;;;5.80;;
16892;SDS011;8563;52.242;9.098;2022-12-18T07:31:15;9.73;;;5.40;;
16892;SDS011;8563;52.242;9.098;2022-12-18T07:33:48;10.63;;;5.07;;
16892;SDS011;8563;52.242;9.098;2022-12-18T07:36:23;8.63;;;5.20;;
16892;SDS011;8563;52.242;9.098;2022-12-18T07:38:56;8.53;;;5.33;;
16892;SDS011;8563;52.242;9.098;2022-12-18T07:41:29;10.00;;;5.53;;
16892;SDS011;8563;52.242;9.098;2022-12-18T07:44:11;8.43;;;5.47;;
16892;SDS011;8563;52.242;9.098;2022-12-18T07:46:44;9.83;;;5.47;;
16892;SDS011;8563;52.242;9.098;2022-12-18T07:49:16;8.37;;;5.03;;
16892;SDS011;8563;52.242;9.098;2022-12-18T07:51:50;8.30;;;5.63;;
16892;SDS011;8563;52.242;9.098;2022-12-18T07:54:23;9.63;;;5.80;;
16892;SDS011;8563;52.242;9.098;2022-12-18T07:56:55;7.90;;;4.93;;
16892;SDS011;8563;52.242;9.098;2022-12-18T07:59:28;9.37;;;5.67;;
16892;SDS011;8563;52.242;9.098;2022-12-18T08:02:01;9.77;;;5.43;;
16892;SDS011;8563;52.242;9.098;2022-12-18T08:04:33;8.50;;;5.37;;
16892;SDS011;8563;52.242;9.098;2022-12-18T08:07:07;8.20;;;5.50;;
16892;SDS011;8563;52.242;9.098;2022-12-18T08:09:39;10.10;;;5.23;;
16892;SDS011;8563;52.242;9.098;2022-12-18T08:12:12;8.40;;;5.03;;
16892;SDS011;8563;52.242;9.098;2022-12-18T08:14:45;10.87;;;5.50;;
16892;SDS011;8563;52.242;9.098;2022-12-18T08:17:18;9.03;;;5.10;;
16892;SDS011;8563;52.242;9.098;2022-12-18T08:19:51;8.47;;;5.60;;
16892;SDS011;8563;52.242;9.098;2022-12-18T08:22:25;7.93;;;4.73;;
16892;SDS011;8563;52.242;9.098;2022-12-18T08:24:57;9.53;;;5.00;;
16892;SDS011;8563;52.242;9.098;2022-12-18T08:27:30;8.73;;;5.07;;
16892;SDS011;8563;52.242;9.098;2022-12-18T08:30:03;7.63;;;4.43;;
16892;SDS011;8563;52.242;9.098;2022-12-18T08:32:36;6.97;;;4.63;;
16892;SDS011;8563;52.242;9.098;2022-12-18T08:35:08;6.40;;;4.60;;
16892;SDS011;8563;52.242;9.098;2022-12-18T08:37:43;6.43;;;4.30;;
16892;SDS011;8563;52.242;9.098;2022-12-18T08:40:16;6.37;;;4.13;;
16892;SDS011;8563;52.242;9.098;2022-12-18T08:42:48;6.43;;;4.27;;
16892;SDS011;8563;52.242;9.098;2022-12-18T08:45:39;7.73;;;3.77;;
16892;SDS011;8563;52.242;9.098;2022-12-18T08:48:11;5.20;;;3.67;;
16892;SDS011;8563;52.242;9.098;2022-12-18T08:50:48;6.93;;;3.80;;
16892;SDS011;8563;52.242;9.098;2022-12-18T08:53:26;7.50;;;3.73;;
16892;SDS011;8563;52.242;9.098;2022-12-18T08:55:59;5.70;;;3.60;;
16892;SDS011;8563;52.242;9.098;2022-12-18T08:58:32;5.60;;;3.87;;
16892;SDS011;8563;52.242;9.098;2022-12-18T09:01:06;5.17;;;3.50;;
16892;SDS011;8563;52.242;9.098;2022-12-18T09:03:39;4.97;;;3.17;;
16892;SDS011;8563;52.242;9.098;2022-12-18T09:06:13;6.07;;;3.50;;
16892;SDS011;8563;52.242;9.098;2022-12-18T09:08:47;5.47;;;3.33;;
16892;SDS011;8563;52.242;9.098;2022-12-18T09:11:20;4.80;;;3.30;;
16892;SDS011;8563;52.242;9.098;2022-12-18T09:13:54;5.30;;;3.87;;
16892;SDS011;8563;52.242;9.098;2022-12-18T09:16:27;5.80;;;3.10;;
16892;SDS011;8563;52.242;9.098;2022-12-18T09:19:01;4.73;;;3.20;;
16892;SDS011;8563;52.242;9.098;2022-12-18T09:21:34;5.17;;;3.43;;
16892;SDS011;8563;52.242;9.098;2022-12-18T09:24:08;5.73;;;3.70;;
16892;SDS011;8563;52.242;9.098;2022-12-18T09:26:44;5.00;;;3.17;;
16892;SDS011;8563;52.242;9.098;2022-12-18T09:29:16;4.63;;;3.07;;
16892;SDS011;8563;52.242;9.098;2022-12-18T09:31:49;5.90;;;3.40;;
16892;SDS011;8563;52.242;9.098;2022-12-18T09:34:21;6.60;;;3.53;;
16892;SDS011;8563;52.242;9.098;2022-12-18T09:36:54;4.50;;;2.93;;
16892;SDS011;8563;52.242;9.098;2022-12-18T09:39:28;4.63;;;3.20;;
16892;SDS011;8563;52.242;9.098;2022-12-18T09:42:00;5.83;;;3.40;;
16892;SDS011;8563;52.242;9.098;2022-12-18T09:44:34;5.43;;;3.23;;
16892;SDS011;8563;52.242;9.098;2022-12-18T09:47:09;4.87;;;2.83;;
16892;SDS011;8563;52.242;9.098;2022-12-18T09:49:43;5.43;;;3.20;;
16892;SDS011;8563;52.242;9.098;2022-12-18T09:52:17;5.40;;;3.37;;
16892;SDS011;8563;52.242;9.098;2022-12-18T09:54:53;6.60;;;3.73;;
16892;SDS011;8563;52.242;9.098;2022-12-18T09:57:29;5.97;;;3.40;;
16892;SDS011;8563;52.242;9.098;2022-12-18T10:00:04;6.23;;;3.60;;
16892;SDS011;8563;52.242;9.098;2022-12-18T10:02:41;7.03;;;2.90;;
16892;SDS011;8563;52.242;9.098;2022-12-18T10:05:15;8.13;;;3.30;;
16892;SDS011;8563;52.242;9.098;2022-12-18T10:07:52;5.00;;;3.00;;
16892;SDS011;8563;52.242;9.098;2022-12-18T10:10:29;5.37;;;3.20;;
16892;SDS011;8563;52.242;9.098;2022-12-18T10:13:07;5.00;;;2.80;;
16892;SDS011;8563;52.242;9.098;2022-12-18T10:15:43;4.77;;;3.30;;
16892;SDS011;8563;52.242;9.098;2022-12-18T10:18:21;5.10;;;3.00;;
16892;SDS011;8563;52.242;9.098;2022-12-18T10:20:56;4.17;;;2.87;;
16892;SDS011;8563;52.242;9.098;2022-12-18T10:23:32;4.30;;;2.83;;
16892;SDS011;8563;52.242;9.098;2022-12-18T10:26:07;4.80;;;2.80;;
16892;SDS011;8563;52.242;9.098;2022-12-18T10:28:40;5.07;;;2.77;;
16892;SDS011;8563;52.242;9.098;2022-12-18T10:31:14;4.43;;;3.00;;
16892;SDS011;8563;52.242;9.098;2022-12-18T10:33:48;3.97;;;2.70;;
16892;SDS011;8563;52.242;9.098;2022-12-18T10:36:20;6.03;;;2.87;;
16892;SDS011;8563;52.242;9.098;2022-12-18T10:38:53;3.80;;;2.60;;
16892;SDS011;8563;52.242;9.098;2022-12-18T10:41:27;6.83;;;3.57;;
16892;SDS011;8563;52.242;9.098;2022-12-18T10:44:11;4.67;;;2.53;;
16892;SDS011;8563;52.242;9.098;2022-12-18T10:46:44;5.53;;;2.97;;
16892;SDS011;8563;52.242;9.098;2022-12-18T10:49:22;3.63;;;3.10;;
16892;SDS011;8563;52.242;9.098;2022-12-18T10:52:04;4.30;;;2.90;;
16892;SDS011;8563;52.242;9.098;2022-12-18T10:54:37;6.10;;;3.23;;
16892;SDS011;8563;52.242;9.098;2022-12-18T10:59:59;5.97;;;3.10;;
16892;SDS011;8563;52.242;9.098;2022-12-18T11:02:33;6.13;;;3.17;;
16892;SDS011;8563;52.242;9.098;2022-12-18T11:07:53;5.10;;;3.40;;
16892;SDS011;8563;52.242;9.098;2022-12-18T11:10:28;4.53;;;3.10;;
16892;SDS011;8563;52.242;9.098;2022-12-18T11:13:14;4.43;;;3.20;;
16892;SDS011;8563;52.242;9.098;2022-12-18T11:15:49;5.63;;;3.07;;
16892;SDS011;8563;52.242;9.098;2022-12-18T11:18:23;4.97;;;3.03;;
16892;SDS011;8563;52.242;9.098;2022-12-18T11:20:57;6.30;;;3.17;;
16892;SDS011;8563;52.242;9.098;2022-12-18T11:23:30;6.03;;;4.00;;
16892;SDS011;8563;52.242;9.098;2022-12-18T11:26:03;7.80;;;3.80;;
16892;SDS011;8563;52.242;9.098;2022-12-18T11:28:38;6.87;;;3.73;;
16892;SDS011;8563;52.242;9.098;2022-12-18T11:31:23;6.20;;;3.50;;
16892;SDS011;8563;52.242;9.098;2022-12-18T11:33:58;5.60;;;3.37;;
16892;SDS011;8563;52.242;9.098;2022-12-18T11:36:33;6.03;;;3.83;;
16892;SDS011;8563;52.242;9.098;2022-12-18T11:39:09;6.40;;;3.80;;
16892;SDS011;8563;52.242;9.098;2022-12-18T11:41:47;11.30;;;4.73;;
16892;SDS011;8563;52.242;9.098;2022-12-18T11:44:50;6.23;;;3.53;;
16892;SDS011;8563;52.242;9.098;2022-12-18T11:47:27;7.10;;;4.03;;
16892;SDS011;8563;52.242;9.098;2022-12-18T11:50:01;8.37;;;3.90;;
16892;SDS011;8563;52.242;9.098;2022-12-18T11:52:36;6.27;;;4.00;;
16892;SDS011;8563;52.242;9.098;2022-12-18T11:55:11;7.10;;;4.00;;
16892;SDS011;8563;52.242;9.098;2022-12-18T11:57:47;6.93;;;4.20;;
16892;SDS011;8563;52.242;9.098;2022-12-18T12:00:21;5.13;;;3.73;;
16892;SDS011;8563;52.242;9.098;2022-12-18T12:03:05;8.23;;;3.70;;
16892;SDS011;8563;52.242;9.098;2022-12-18T12:05:43;6.30;;;3.70;;
16892;SDS011;8563;52.242;9.098;2022-12-18T12:08:19;5.60;;;3.93;;
16892;SDS011;8563;52.242;9.098;2022-12-18T12:10:54;6.23;;;3.73;;
16892;SDS011;8563;52.242;9.098;2022-12-18T12:13:33;8.70;;;3.90;;
16892;SDS011;8563;52.242;9.098;2022-12-18T12:16:12;7.13;;;4.00;;
16892;SDS011;8563;52.242;9.098;2022-12-18T12:18:56;6.93;;;3.20;;
16892;SDS011;8563;52.242;9.098;2022-12-18T12:21:36;6.00;;;3.60;;
16892;SDS011;8563;52.242;9.098;2022-12-18T12:24:17;5.10;;;3.80;;
16892;SDS011;8563;52.242;9.098;2022-12-18T12:26:57;5.60;;;3.27;;
16892;SDS011;8563;52.242;9.098;2022-12-18T12:29:36;6.97;;;3.30;;
16892;SDS011;8563;52.242;9.098;2022-12-18T12:32:12;6.07;;;3.00;;
16892;SDS011;8563;52.242;9.098;2022-12-18T12:34:54;5.30;;;3.50;;
16892;SDS011;8563;52.242;9.098;2022-12-18T12:37:30;5.40;;;3.43;;
16892;SDS011;8563;52.242;9.098;2022-12-18T12:40:06;4.33;;;2.97;;
16892;SDS011;8563;52.242;9.098;2022-12-18T12:42:41;5.60;;;3.47;;
16892;SDS011;8563;52.242;9.098;2022-12-18T12:45:33;5.67;;;3.20;;
16892;SDS011;8563;52.242;9.098;2022-12-18T12:48:07;5.33;;;3.13;;
16892;SDS011;8563;52.242;9.098;2022-12-18T12:50:44;5.73;;;3.23;;
16892;SDS011;8563;52.242;9.098;2022-12-18T12:53:21;6.67;;;3.30;;
16892;SDS011;8563;52.242;9.098;2022-12-18T12:55:56;6.50;;;3.70;;
16892;SDS011;8563;52.242;9.098;2022-12-18T12:58:31;4.53;;;3.30;;
16892;SDS011;8563;52.242;9.098;2022-12-18T13:01:08;6.87;;;3.40;;
16892;SDS011;8563;52.242;9.098;2022-12-18T13:03:43;5.87;;;2.83;;
16892;SDS011;8563;52.242;9.098;2022-12-18T13:06:24;5.10;;;3.40;;
16892;SDS011;8563;52.242;9.098;2022-12-18T13:09:00;4.57;;;3.53;;
16892;SDS011;8563;52.242;9.098;2022-12-18T13:11:37;4.60;;;3.00;;
16892;SDS011;8563;52.242;9.098;2022-12-18T13:14:29;4.80;;;3.17;;
16892;SDS011;8563;52.242;9.098;2022-12-18T13:20:04;8.20;;;3.37;;
16892;SDS011;8563;52.242;9.098;2022-12-18T13:22:38;6.17;;;3.80;;
16892;SDS011;8563;52.242;9.098;2022-12-18T13:25:31;5.13;;;3.50;;
16892;SDS011;8563;52.242;9.098;2022-12-18T13:28:07;5.10;;;3.50;;
16892;SDS011;8563;52.242;9.098;2022-12-18T13:30:42;5.87;;;3.57;;
16892;SDS011;8563;52.242;9.098;2022-12-18T13:36:28;10.73;;;3.97;;
16892;SDS011;8563;52.242;9.098;2022-12-18T13:48:02;4.00;;;3.10;;
16892;SDS011;8563;52.242;9.098;2022-12-18T13:50:35;4.80;;;3.17;;
16892;SDS011;8563;52.242;9.098;2022-12-18T13:53:12;4.87;;;3.37;;
16892;SDS011;8563;52.242;9.098;2022-12-18T13:55:48;6.00;;;3.10;;
16892;SDS011;8563;52.242;9.098;2022-12-18T13:58:22;7.23;;;3.40;;
16892;SDS011;8563;52.242;9.098;2022-12-18T14:00:54;6.17;;;3.77;;
16892;SDS011;8563;52.242;9.098;2022-12-18T14:03:30;5.37;;;3.30;;
16892;SDS011;8563;52.242;9.098;2022-12-18T14:06:04;5.87;;;3.03;;
16892;SDS011;8563;52.242;9.098;2022-12-18T14:08:39;6.33;;;3.20;;
16892;SDS011;8563;52.242;9.098;2022-12-18T14:11:18;4.03;;;3.00;;
16892;SDS011;8563;52.242;9.098;2022-12-18T14:13:51;5.00;;;3.13;;
16892;SDS011;8563;52.242;9.098;2022-12-18T14:16:24;4.87;;;3.47;;
16892;SDS011;8563;52.242;9.098;2022-12-18T14:18:58;5.87;;;3.50;;
16892;SDS011;8563;52.242;9.098;2022-12-18T14:21:31;4.70;;;3.07;;
16892;SDS011;8563;52.242;9.098;2022-12-18T14:24:11;4.00;;;3.00;;
16892;SDS011;8563;52.242;9.098;2022-12-18T14:26:45;5.13;;;3.37;;
16892;SDS011;8563;52.242;9.098;2022-12-18T14:29:19;5.53;;;3.43;;
16892;SDS011;8563;52.242;9.098;2022-12-18T14:32:05;5.70;;;3.53;;
16892;SDS011;8563;52.242;9.098;2022-12-18T14:34:39;5.70;;;3.80;;
16892;SDS011;8563;52.242;9.098;2022-12-18T14:37:12;5.60;;;3.23;;
16892;SDS011;8563;52.242;9.098;2022-12-18T14:39:55;6.50;;;3.23;;
16892;SDS011;8563;52.242;9.098;2022-12-18T14:42:28;6.40;;;3.97;;
16892;SDS011;8563;52.242;9.098;2022-12-18T14:47:52;6.53;;;3.50;;
16892;SDS011;8563;52.242;9.098;2022-12-18T14:50:26;4.70;;;3.33;;
16892;SDS011;8563;52.242;9.098;2022-12-18T14:52:58;5.00;;;3.10;;
16892;SDS011;8563;52.242;9.098;2022-12-18T14:55:31;5.43;;;3.53;;
16892;SDS011;8563;52.242;9.098;2022-12-18T14:58:03;4.73;;;3.20;;
16892;SDS011;8563;52.242;9.098;2022-12-18T15:00:36;4.73;;;3.43;;
16892;SDS011;8563;52.242;9.098;2022-12-18T15:03:14;5.17;;;3.40;;
16892;SDS011;8563;52.242;9.098;2022-12-18T15:05:51;6.80;;;3.73;;
16892;SDS011;8563;52.242;9.098;2022-12-18T15:08:28;5.80;;;3.40;;
16892;SDS011;8563;52.242;9.098;2022-12-18T15:11:01;4.77;;;3.60;;
16892;SDS011;8563;52.242;9.098;2022-12-18T15:13:34;4.50;;;3.30;;
16892;SDS011;8563;52.242;9.098;2022-12-18T15:16:06;6.73;;;3.77;;
16892;SDS011;8563;52.242;9.098;2022-12-18T15:18:44;5.90;;;3.63;;
16892;SDS011;8563;52.242;9.098;2022-12-18T15:21:20;5.20;;;3.60;;
16892;SDS011;8563;52.242;9.098;2022-12-18T15:23:53;6.67;;;3.77;;
16892;SDS011;8563;52.242;9.098;2022-12-18T15:26:25;6.77;;;3.90;;
16892;SDS011;8563;52.242;9.098;2022-12-18T15:28:58;4.50;;;3.60;;
16892;SDS011;8563;52.242;9.098;2022-12-18T15:31:33;5.07;;;3.70;;
16892;SDS011;8563;52.242;9.098;2022-12-18T15:34:10;6.00;;;3.10;;
16892;SDS011;8563;52.242;9.098;2022-12-18T15:36:45;4.93;;;3.63;;
16892;SDS011;8563;52.242;9.098;2022-12-18T15:39:17;5.87;;;3.60;;
16892;SDS011;8563;52.242;9.098;2022-12-18T15:41:50;4.83;;;3.60;;
16892;SDS011;8563;52.242;9.098;2022-12-18T15:44:51;5.57;;;3.70;;
16892;SDS011;8563;52.242;9.098;2022-12-18T15:47:24;5.53;;;3.57;;
16892;SDS011;8563;52.242;9.098;2022-12-18T15:49:56;6.03;;;3.90;;
16892;SDS011;8563;52.242;9.098;2022-12-18T15:52:31;5.73;;;3.70;;
16892;SDS011;8563;52.242;9.098;2022-12-18T15:55:04;4.73;;;3.33;;
16892;SDS011;8563;52.242;9.098;2022-12-18T15:58:09;4.77;;;3.00;;
16892;SDS011;8563;52.242;9.098;2022-12-18T16:00:42;7.83;;;4.20;;
16892;SDS011;8563;52.242;9.098;2022-12-18T16:03:15;6.57;;;3.63;;
16892;SDS011;8563;52.242;9.098;2022-12-18T16:05:47;7.73;;;3.90;;
16892;SDS011;8563;52.242;9.098;2022-12-18T16:08:21;6.10;;;3.40;;
16892;SDS011;8563;52.242;9.098;2022-12-18T16:10:54;6.83;;;3.70;;